»·PEaware :: N61709 KSNA-KAVX

N61709 :: KSNA-KAVX

FLIGHT INFORMATION

Flight Status: Arrived
Operator: Privately registered:
United States
More flights under this callsign
Pilot: Eduardo Elias G. (24838)
Aircraft: CESSNA 182 SKYLANE
(C182)
More flights by this aircraft type
Origin: KSNA John Wayne-Orange Co
United States
Destination: KAVX Catalina
United States
More flights between these airports :: More routes between these airports
Route: SLI V21 SXC
File this flight plan on PilotEdge
Remarks: I-7 Rating
Altitude:
(Current/Filed)
4,000ft
Speed:
(Current/Filed)
140kts
Departed: 20-Jan-20 09:40 PM
Arrived: 20-Jan-20 10:10 PM
Distance/Time
Traveled:
32nm/0:30
Distance/Time
To Go:
Arrived

Flight Plot

Page will automatically refresh every two minutes.


Map Options




Map Legend


Flown Route
Filed Route
Departure Airport
Arrival Airport
Navaid (VOR, NDB)
Fix

Horizontal Profiles

Position Reports

Time Latitude Longitude Heading Altitude Ground
Speed
20-Jan-20 21:17 33.667480 -117.870740 37 59ft 0kts
20-Jan-20 21:18 33.667483 -117.870738 37 59ft 0kts
20-Jan-20 21:19 33.667485 -117.870735 37 59ft 0kts
20-Jan-20 21:20 33.667488 -117.870732 37 59ft 0kts
20-Jan-20 21:21 33.667491 -117.870730 37 59ft 0kts
20-Jan-20 21:22 33.667494 -117.870727 37 59ft 0kts
20-Jan-20 21:24 33.667497 -117.870725 37 59ft 0kts
20-Jan-20 21:25 33.667500 -117.870722 37 59ft 0kts
20-Jan-20 21:26 33.667552 -117.870730 310 59ft 0kts
20-Jan-20 21:27 33.667553 -117.870732 310 59ft 0kts
20-Jan-20 21:28 33.667527 -117.870811 203 59ft 0kts
20-Jan-20 21:29 33.667526 -117.870811 203 59ft 0kts
20-Jan-20 21:30 33.667525 -117.870812 203 59ft 0kts
20-Jan-20 21:31 33.667452 -117.871139 308 59ft 1kts
20-Jan-20 21:32 33.669645 -117.870782 41 59ft 15kts
20-Jan-20 21:33 33.673752 -117.866340 26 59ft 10kts
20-Jan-20 21:34 33.678442 -117.863604 26 59ft 18kts
20-Jan-20 21:35 33.679531 -117.863388 301 59ft 0kts
20-Jan-20 21:36 33.679537 -117.863399 301 59ft 0kts
20-Jan-20 21:37 33.679542 -117.863409 301 59ft 0kts
20-Jan-20 21:38 33.679575 -117.863473 301 59ft 4kts
20-Jan-20 21:39 33.679742 -117.864411 209 59ft 0kts
20-Jan-20 21:40 33.663455 -117.879635 239 822ft 94kts
20-Jan-20 21:41 33.652288 -117.913268 251 1492ft 129kts
20-Jan-20 21:42 33.648799 -117.952466 271 2007ft 128kts
20-Jan-20 21:42 33.649936 -117.984210 271 2757ft 102kts
20-Jan-20 21:44 33.651070 -118.017098 269 3968ft 74kts
20-Jan-20 21:45 33.653397 -118.054865 272 3988ft 136kts
20-Jan-20 21:45 33.655166 -118.093652 271 3988ft 141kts
20-Jan-20 21:47 33.657817 -118.149482 270 3990ft 145kts
20-Jan-20 21:48 33.634790 -118.185866 222 3986ft 138kts
20-Jan-20 21:48 33.611181 -118.212486 217 3990ft 140kts
20-Jan-20 21:50 33.572942 -118.241444 206 3989ft 139kts
20-Jan-20 21:50 33.546121 -118.263235 215 3990ft 140kts
20-Jan-20 21:51 33.519086 -118.296464 216 3992ft 140kts
20-Jan-20 21:52 33.487545 -118.323938 214 3989ft 140kts
20-Jan-20 21:53 33.455783 -118.351064 214 3980ft 140kts
20-Jan-20 21:54 33.424143 -118.378062 214 3980ft 140kts
20-Jan-20 21:55 33.392333 -118.405187 214 3980ft 140kts
20-Jan-20 21:56 33.362378 -118.433656 238 3982ft 141kts
20-Jan-20 21:57 33.340780 -118.472471 206 3967ft 140kts
20-Jan-20 21:58 33.327953 -118.444731 40 3979ft 145kts
20-Jan-20 21:59 33.363876 -118.423257 27 3980ft 143kts
20-Jan-20 22:00 33.401672 -118.411254 4 3986ft 142kts
20-Jan-20 22:01 33.441412 -118.407663 4 3981ft 143kts
20-Jan-20 22:02 33.479300 -118.412037 319 3985ft 131kts
20-Jan-20 22:03 33.506889 -118.434503 0 3791ft 124kts
20-Jan-20 22:04 33.511682 -118.405374 139 3425ft 108kts
20-Jan-20 22:05 33.488279 -118.396836 196 3412ft 92kts
20-Jan-20 22:06 33.462775 -118.406927 197 3167ft 106kts
20-Jan-20 22:07 33.432735 -118.411360 162 2478ft 107kts
20-Jan-20 22:08 33.412119 -118.402473 223 2131ft 67kts
20-Jan-20 22:09 33.404055 -118.417218 172 1605ft 1kts
20-Jan-20 22:10 33.403574 -118.415719 41 1605ft 6kts
20-Jan-20 22:11 33.403576 -118.415619 128 1605ft 0kts

Navigation Log

Ident Type
Flight plan parsing failed, navigation log unavailable